Time;durP1;ratioP1;P1;durP2;ratioP2;P2;SDS_P1;SDS_P2;PMS_P1;PMS_P2;Temp;Humidity;BMP_temperature;BMP_pressure;BME280_temperature;BME280_humidity;BME280_pressure;Samples;Min_cycle;Max_cycle;Signal;HPM_P1;HPM_P2
2022/05/15 00:01:59;;;;;;;10.97;6.90;;;;;;;20.88;100.00;99587.58;1746356;80;21811;-57
2022/05/15 00:04:26;;;;;;;7.37;6.53;;;;;;;20.77;100.00;99588.64;1766183;80;21682;-62
2022/05/15 00:06:53;;;;;;;9.03;6.47;;;;;;;20.53;100.00;99590.52;1760238;80;21725;-57
2022/05/15 00:09:21;;;;;;;8.83;7.17;;;;;;;20.63;100.00;99590.48;1746929;80;21947;-55
2022/05/15 00:11:48;;;;;;;6.80;5.80;;;;;;;20.60;100.00;99585.72;1766812;80;21716;-57
2022/05/15 00:14:17;;;;;;;10.40;6.13;;;;;;;20.58;100.00;99587.06;1772015;80;22232;-63
2022/05/15 00:16:44;;;;;;;8.00;6.07;;;;;;;20.62;100.00;99588.12;1745959;80;21719;-56
2022/05/15 00:19:11;;;;;;;9.10;6.23;;;;;;;20.87;100.00;99580.66;1763484;80;21766;-57
2022/05/15 00:21:39;;;;;;;7.67;5.60;;;;;;;20.97;100.00;99583.31;1777097;80;21047;-55
2022/05/15 00:24:07;;;;;;;6.90;6.03;;;;;;;20.88;100.00;99586.25;1775376;80;21674;-56
2022/05/15 00:26:34;;;;;;;8.23;6.23;;;;;;;20.94;100.00;99586.48;1753474;80;21664;-64
2022/05/15 00:29:02;;;;;;;8.10;6.53;;;;;;;21.08;100.00;99578.25;1760328;80;21491;-58
2022/05/15 00:31:30;;;;;;;8.53;6.60;;;;;;;21.14;100.00;99579.84;1762089;80;21632;-56
2022/05/15 00:33:57;;;;;;;8.17;6.53;;;;;;;21.14;100.00;99579.84;1776091;80;20983;-58
2022/05/15 00:36:24;;;;;;;8.23;6.90;;;;;;;21.12;100.00;99591.22;1776496;80;21517;-58
2022/05/15 00:38:53;;;;;;;9.77;7.20;;;;;;;21.20;100.00;99593.86;1768583;80;22126;-56
2022/05/15 00:41:20;;;;;;;8.73;6.87;;;;;;;21.17;100.00;99587.77;1759047;80;21234;-58
2022/05/15 00:43:54;;;;;;;9.50;7.23;;;;;;;21.17;100.00;99591.73;1756583;80;21260;-57
2022/05/15 00:46:28;;;;;;;9.20;6.67;;;;;;;21.22;100.00;99593.61;1745440;80;22315;-57
2022/05/15 00:48:57;;;;;;;7.53;6.10;;;;;;;21.07;100.00;99568.72;1746544;80;21389;-57
2022/05/15 00:51:47;;;;;;;8.50;5.63;;;;;;;21.19;100.00;99586.98;1745487;80;21051;-56
2022/05/15 00:54:22;;;;;;;7.40;6.50;;;;;;;21.23;100.00;99599.95;1745143;80;21834;-59
2022/05/15 00:56:56;;;;;;;8.33;7.37;;;;;;;21.25;100.00;99599.16;1731040;80;22270;-56
2022/05/15 00:59:25;;;;;;;7.27;5.90;;;;;;;21.13;100.00;99598.11;1762374;80;21026;-66
2022/05/15 01:01:52;;;;;;;8.27;6.37;;;;;;;21.13;100.00;99598.11;1750281;80;22062;-60
2022/05/15 01:04:20;;;;;;;8.20;6.83;;;;;;;21.01;100.00;99617.48;1713146;81;22194;-58
2022/05/15 01:06:48;;;;;;;8.23;6.57;;;;;;;21.08;100.00;99612.70;1752743;80;21061;-57
2022/05/15 01:09:16;;;;;;;10.20;7.40;;;;;;;21.04;100.00;99607.67;1775589;80;23097;-64
2022/05/15 01:11:45;;;;;;;7.83;6.20;;;;;;;20.95;100.00;99606.64;1747441;80;21435;-60
2022/05/15 01:14:13;;;;;;;6.47;5.80;;;;;;;20.82;100.00;99600.55;1746041;80;22230;-59
2022/05/15 01:16:40;;;;;;;9.93;6.40;;;;;;;20.85;100.00;99599.48;1765532;80;21003;-57
2022/05/15 01:19:07;;;;;;;9.03;6.60;;;;;;;20.85;100.00;99599.48;1775835;80;20991;-62
2022/05/15 01:21:42;;;;;;;8.43;6.57;;;;;;;20.74;100.00;99600.55;1775370;80;21820;-58
2022/05/15 01:24:09;;;;;;;9.67;6.23;;;;;;;20.67;100.00;99600.56;1775420;80;21605;-56
2022/05/15 01:26:37;;;;;;;9.07;6.53;;;;;;;20.46;100.00;99604.51;1776690;80;21754;-55
2022/05/15 01:29:05;;;;;;;9.90;6.60;;;;;;;20.38;100.00;99607.66;1756301;80;21647;-58
2022/05/15 01:31:33;;;;;;;9.47;6.67;;;;;;;20.26;100.00;99611.08;1746047;80;21741;-63
2022/05/15 01:34:01;;;;;;;8.67;6.60;;;;;;;20.31;100.00;99616.41;1762559;80;22023;-60
2022/05/15 01:36:28;;;;;;;9.33;5.93;;;;;;;20.38;100.00;99618.24;1758394;80;21045;-56
2022/05/15 01:38:57;;;;;;;8.30;5.73;;;;;;;21.14;100.00;99616.94;1746368;80;21626;-57
2022/05/15 01:41:25;;;;;;;8.93;7.53;;;;;;;21.38;100.00;99619.03;1769069;80;21736;-61
2022/05/15 01:43:53;;;;;;;8.83;6.40;;;;;;;21.21;100.00;99615.31;1745288;80;21726;-62
2022/05/15 01:46:22;;;;;;;10.10;7.10;;;;;;;21.36;100.00;99614.52;1760099;80;22280;-59
2022/05/15 01:48:51;;;;;;;8.70;6.90;;;;;;;21.22;100.00;99613.48;1775927;80;21500;-57
2022/05/15 01:51:20;;;;;;;8.80;7.33;;;;;;;21.18;100.00;99609.78;1759605;80;21682;-56
2022/05/15 01:53:48;;;;;;;8.70;6.67;;;;;;;21.49;100.00;99615.28;1768354;80;21731;-64
2022/05/15 01:56:16;;;;;;;8.77;6.77;;;;;;;21.25;100.00;99612.92;1776253;80;21562;-57
2022/05/15 01:58:43;;;;;;;9.73;6.17;;;;;;;21.22;100.00;99617.46;1777219;80;21621;-57
2022/05/15 02:01:10;;;;;;;9.23;7.23;;;;;;;21.18;100.00;99616.41;1750336;80;21665;-59
2022/05/15 02:03:37;;;;;;;8.50;7.23;;;;;;;21.16;100.00;99617.98;1764760;80;21762;-64
2022/05/15 02:06:04;;;;;;;8.70;6.83;;;;;;;21.12;100.00;99617.73;1774819;79;21716;-57
2022/05/15 02:08:34;;;;;;;9.33;6.63;;;;;;;21.33;100.00;99619.05;1768541;80;22895;-56
2022/05/15 02:11:01;;;;;;;7.63;6.43;;;;;;;21.46;100.00;99617.68;1774616;80;21636;-57
2022/05/15 02:13:29;;;;;;;8.43;5.80;;;;;;;21.43;100.00;99618.22;1765474;80;21707;-58
2022/05/15 02:15:58;;;;;;;8.80;6.70;;;;;;;21.35;100.00;99618.23;1745232;80;22759;-56
2022/05/15 02:18:25;;;;;;;8.40;7.00;;;;;;;21.41;100.00;99625.13;1701781;81;21768;-57
2022/05/15 02:20:52;;;;;;;7.23;6.40;;;;;;;21.45;100.00;99632.02;1734638;80;21809;-57
2022/05/15 02:23:20;;;;;;;8.10;7.13;;;;;;;21.45;100.00;99632.02;1746789;81;21738;-56
2022/05/15 02:25:48;;;;;;;10.63;7.80;;;;;;;21.53;100.00;99626.14;1743854;81;21779;-58
2022/05/15 02:28:15;;;;;;;10.50;8.63;;;;;;;21.59;100.00;99631.17;1765492;81;22221;-65
2022/05/15 02:30:42;;;;;;;11.13;8.20;;;;;;;21.53;100.00;99644.17;1734514;81;21749;-59
2022/05/15 02:33:10;;;;;;;9.47;8.57;;;;;;;21.65;100.00;99632.47;1746637;80;20903;-58
2022/05/15 02:35:38;;;;;;;10.10;7.83;;;;;;;21.65;100.00;99632.47;1766443;80;21310;-56
2022/05/15 02:38:05;;;;;;;10.17;8.23;;;;;;;21.56;100.00;99632.24;1774910;80;21538;-62
2022/05/15 02:40:34;;;;;;;8.10;7.00;;;;;;;21.78;100.00;99640.64;1747607;80;22178;-65
2022/05/15 02:43:03;;;;;;;7.70;6.70;;;;;;;21.92;100.00;99640.83;1756196;80;21137;-58
2022/05/15 02:45:31;;;;;;;10.43;6.97;;;;;;;22.24;100.00;99638.32;1761929;80;21662;-58
2022/05/15 02:47:58;;;;;;;8.83;7.10;;;;;;;22.69;100.00;99644.35;1764575;80;21256;-65
2022/05/15 02:53:11;;;;;;;7.80;6.00;;;;;;;22.84;100.00;99645.55;1759403;80;20986;-56
2022/05/15 02:55:38;;;;;;;8.00;5.70;;;;;;;23.08;100.00;99642.21;1755934;80;21485;-58
2022/05/15 02:58:06;;;;;;;6.10;5.50;;;;;;;23.35;100.00;99641.67;1746191;80;21631;-61
2022/05/15 03:00:33;;;;;;;6.20;5.20;;;;;;;23.74;100.00;99646.83;1754865;80;21380;-59
2022/05/15 03:03:00;;;;;;;6.23;5.33;;;;;;;24.47;100.00;99646.40;1777257;80;20942;-62
2022/05/15 03:05:27;;;;;;;6.70;5.73;;;;;;;25.46;92.47;99647.12;1753024;80;21003;-59
2022/05/15 03:07:55;;;;;;;6.10;5.03;;;;;;;26.09;83.18;99646.91;1745819;80;21018;-59
2022/05/15 03:10:22;;;;;;;6.93;5.07;;;;;;;26.17;73.24;99650.20;1716492;83;21809;-59
2022/05/15 03:12:51;;;;;;;6.60;5.03;;;;;;;26.50;66.80;99659.38;1742714;81;21533;-64
2022/05/15 03:15:20;;;;;;;5.33;4.60;;;;;;;27.02;63.85;99663.18;1734145;80;20988;-59
2022/05/15 03:17:47;;;;;;;6.07;4.83;;;;;;;27.92;59.02;99655.41;1744921;81;21094;-63
2022/05/15 03:20:16;;;;;;;5.73;5.07;;;;;;;28.68;54.33;99654.42;1749110;81;21030;-68
2022/05/15 03:22:43;;;;;;;7.00;5.00;;;;;;;29.27;50.91;99656.48;1751966;81;21333;-59
2022/05/15 03:25:11;;;;;;;5.63;4.37;;;;;;;30.02;47.90;99651.34;1764740;81;21255;-65
2022/05/15 03:27:39;;;;;;;5.67;4.40;;;;;;;30.83;44.80;99650.02;1740429;81;21494;-64
2022/05/15 03:30:08;;;;;;;5.77;4.57;;;;;;;31.24;42.75;99658.48;1735644;81;21083;-66
2022/05/15 03:32:37;;;;;;;5.97;4.03;;;;;;;31.58;40.99;99659.75;1756875;81;21588;-57
2022/05/15 03:35:06;;;;;;;5.43;4.43;;;;;;;32.08;39.78;99668.78;1739112;81;21043;-57
2022/05/15 03:37:33;;;;;;;4.60;3.90;;;;;;;32.43;38.55;99669.61;1734624;81;21224;-63
2022/05/15 03:40:00;;;;;;;5.12;3.60;;;;;;;32.46;37.91;99668.33;1741457;82;20984;-65
2022/05/15 03:42:28;;;;;;;4.15;3.60;;;;;;;32.84;37.00;99665.66;1718462;82;21047;-57
2022/05/15 03:44:55;;;;;;;5.20;3.17;;;;;;;33.24;36.37;99663.98;1742739;82;21866;-58
2022/05/15 03:47:23;;;;;;;4.50;3.58;;;;;;;33.81;35.30;99669.35;1757964;81;21025;-64
2022/05/15 03:49:50;;;;;;;4.45;3.52;;;;;;;34.22;34.58;99663.86;1736277;82;22299;-61
2022/05/15 03:52:17;;;;;;;5.15;3.47;;;;;;;34.43;33.98;99666.76;1776248;80;21051;-58
2022/05/15 03:54:46;;;;;;;4.95;3.60;;;;;;;34.78;32.58;99669.38;1777923;80;20988;-57
2022/05/15 03:57:14;;;;;;;3.98;3.20;;;;;;;34.90;32.09;99667.84;1776516;80;21063;-56
2022/05/15 03:59:42;;;;;;;5.22;3.00;;;;;;;35.06;31.88;99666.39;1764207;80;21445;-56
2022/05/15 04:02:09;;;;;;;4.80;3.30;;;;;;;35.46;31.81;99669.92;1745828;80;21138;-58
2022/05/15 04:04:37;;;;;;;4.05;3.20;;;;;;;36.11;30.98;99669.48;1767795;80;21435;-57
2022/05/15 04:07:05;;;;;;;3.37;2.47;;;;;;;36.27;30.00;99663.27;1775584;80;21055;-57
2022/05/15 04:09:32;;;;;;;4.50;2.22;;;;;;;36.62;29.05;99664.23;1789514;79;21055;-57
2022/05/15 04:12:00;;;;;;;4.37;2.80;;;;;;;36.83;28.33;99663.67;1790529;80;20994;-60
2022/05/15 04:14:27;;;;;;;3.47;2.40;;;;;;;36.99;28.17;99658.78;1776859;79;21347;-57
2022/05/15 04:16:55;;;;;;;3.70;2.10;;;;;;;37.03;28.25;99660.17;1760248;79;21054;-57
2022/05/15 04:19:22;;;;;;;2.95;2.20;;;;;;;37.17;27.40;99658.93;1719983;82;21116;-58
2022/05/15 04:21:49;;;;;;;3.58;2.50;;;;;;;37.16;27.39;99658.70;1772692;80;21094;-58
2022/05/15 04:24:17;;;;;;;2.80;1.85;;;;;;;37.20;27.12;99660.09;1735331;81;21841;-57
2022/05/15 04:26:46;;;;;;;3.67;2.33;;;;;;;37.62;26.54;99662.91;1743462;80;22110;-57
2022/05/15 04:29:13;;;;;;;3.37;2.10;;;;;;;38.01;25.58;99662.37;1739305;81;21611;-58
2022/05/15 04:31:42;;;;;;;3.05;1.42;;;;;;;38.29;25.32;99666.53;1768614;80;21014;-57
2022/05/15 04:34:09;;;;;;;3.22;2.02;;;;;;;38.81;24.86;99669.02;1732841;81;21005;-60
2022/05/15 04:36:36;;;;;;;3.50;2.08;;;;;;;38.93;24.17;99672.13;1755927;81;21344;-59
2022/05/15 04:39:04;;;;;;;5.40;2.25;;;;;;;38.69;23.93;99667.42;1755798;81;21108;-56
2022/05/15 04:41:31;;;;;;;3.05;1.90;;;;;;;39.07;23.78;99669.22;1754927;80;21023;-57
2022/05/15 04:43:59;;;;;;;4.42;2.05;;;;;;;39.32;23.43;99669.98;1726793;81;20977;-65
2022/05/15 04:46:29;;;;;;;3.70;1.80;;;;;;;39.82;23.02;99670.49;1774440;80;22127;-56
2022/05/15 04:48:56;;;;;;;5.90;1.98;;;;;;;40.18;22.48;99675.22;1774530;80;21321;-57
2022/05/15 04:51:24;;;;;;;3.95;2.27;;;;;;;39.98;21.92;99676.86;1744727;80;21786;-58
2022/05/15 04:53:51;;;;;;;2.75;2.05;;;;;;;40.28;21.40;99677.72;1762466;80;21477;-59
2022/05/15 04:56:18;;;;;;;5.33;2.77;;;;;;;40.21;21.38;99678.52;1755367;80;21423;-57
2022/05/15 04:58:45;;;;;;;5.60;2.27;;;;;;;40.03;20.90;99681.30;1756921;80;21014;-57
2022/05/15 05:01:13;;;;;;;6.62;2.10;;;;;;;39.13;20.85;99673.87;1764663;80;21011;-58
2022/05/15 05:03:40;;;;;;;3.98;1.90;;;;;;;39.28;20.49;99677.39;1773693;80;21225;-64
2022/05/15 05:06:08;;;;;;;5.00;2.02;;;;;;;38.90;20.84;99677.58;1738084;80;21431;-58
2022/05/15 05:08:35;;;;;;;3.55;1.98;;;;;;;39.23;20.79;99675.63;1711606;82;21104;-57
2022/05/15 05:11:03;;;;;;;3.37;1.72;;;;;;;39.50;20.61;99679.50;1735990;81;21047;-57
2022/05/15 05:13:30;;;;;;;3.98;2.12;;;;;;;39.68;19.97;99683.58;1723977;81;21104;-65
2022/05/15 05:15:58;;;;;;;5.35;2.00;;;;;;;39.26;20.12;99678.38;1729759;81;21134;-62
2022/05/15 05:18:25;;;;;;;4.60;1.70;;;;;;;38.82;20.02;99686.33;1751617;81;21389;-57
2022/05/15 05:20:53;;;;;;;4.03;2.02;;;;;;;36.72;21.88;99690.73;1753463;81;20992;-56
2022/05/15 05:23:20;;;;;;;3.65;2.30;;;;;;;35.74;22.63;99689.13;1751003;81;21111;-55
2022/05/15 05:25:48;;;;;;;3.85;2.12;;;;;;;34.78;23.62;99689.69;1752694;81;21004;-63
2022/05/15 05:28:15;;;;;;;4.37;2.12;;;;;;;34.00;24.84;99699.72;1753290;81;21999;-57
2022/05/15 05:30:43;;;;;;;4.08;2.35;;;;;;;33.29;25.56;99694.77;1753677;81;20992;-56
2022/05/15 05:33:10;;;;;;;3.95;2.45;;;;;;;32.90;26.46;99696.68;1753849;81;20957;-55
2022/05/15 05:35:38;;;;;;;4.90;2.22;;;;;;;32.55;26.44;99704.63;1744793;81;21685;-60
2022/05/15 05:38:05;;;;;;;5.35;2.40;;;;;;;32.20;27.12;99702.47;1750361;81;21742;-57
2022/05/15 05:40:33;;;;;;;4.58;2.08;;;;;;;32.10;27.48;99708.33;1735705;81;21468;-56
2022/05/15 05:43:00;;;;;;;5.08;2.77;;;;;;;31.95;27.39;99711.17;1772812;79;21486;-56
2022/05/15 05:45:27;;;;;;;3.30;2.02;;;;;;;32.10;27.51;99706.98;1780501;79;20998;-56
2022/05/15 05:47:55;;;;;;;3.20;2.10;;;;;;;32.41;27.66;99705.58;1777226;79;21030;-63
2022/05/15 05:50:25;;;;;;;4.35;2.20;;;;;;;33.12;27.12;99693.21;1772996;79;21492;-56
2022/05/15 05:52:54;;;;;;;5.00;2.30;;;;;;;33.77;26.57;99692.25;1747316;79;21150;-57
2022/05/15 05:55:21;;;;;;;5.22;2.33;;;;;;;34.65;25.40;99686.92;1766303;79;21134;-57
2022/05/15 05:57:49;;;;;;;4.75;2.40;;;;;;;35.26;24.92;99686.05;1776850;79;21048;-65
2022/05/15 06:00:24;;;;;;;4.10;2.62;;;;;;;35.97;24.02;99683.61;1774493;79;21560;-56
2022/05/15 06:04:38;;;;;;;4.08;2.35;;;;;;;36.37;23.65;99685.69;1746606;79;21426;-56
2022/05/15 06:05:22;;;;;;;3.83;2.02;;;;;;;36.85;22.97;99682.30;1741513;79;21846;-57
2022/05/15 06:07:49;;;;;;;3.62;1.82;;;;;;;37.17;22.52;99690.77;1776012;79;21008;-65
2022/05/15 06:10:17;;;;;;;4.25;2.42;;;;;;;37.36;22.13;99676.15;1790275;79;21974;-58
2022/05/15 06:12:44;;;;;;;3.72;1.95;;;;;;;37.46;22.25;99676.23;1790336;79;21034;-61
2022/05/15 06:15:11;;;;;;;4.67;2.20;;;;;;;37.56;21.52;99670.66;1769154;79;20923;-58
2022/05/15 06:17:40;;;;;;;4.35;1.87;;;;;;;37.53;21.50;99666.56;1787928;79;21245;-66
2022/05/15 06:20:09;;;;;;;4.85;1.95;;;;;;;37.59;21.60;99671.86;1782870;79;21102;-57
2022/05/15 06:22:36;;;;;;;3.35;1.85;;;;;;;37.67;21.11;99669.38;1777609;79;21334;-58
2022/05/15 06:25:04;;;;;;;3.65;1.92;;;;;;;37.64;20.61;99672.84;1724875;83;21305;-56
2022/05/15 06:27:31;;;;;;;4.90;1.85;;;;;;;37.52;20.15;99671.81;1752822;81;21060;-56
2022/05/15 06:29:58;;;;;;;3.77;1.98;;;;;;;37.39;20.11;99669.38;1779393;80;21547;-57
2022/05/15 06:32:26;;;;;;;2.60;1.62;;;;;;;37.04;20.66;99667.74;1778222;80;21067;-57
2022/05/15 06:34:53;;;;;;;2.80;1.40;;;;;;;37.25;20.82;99676.06;1762751;80;21026;-55
2022/05/15 06:37:20;;;;;;;3.10;1.75;;;;;;;37.39;20.82;99676.17;1750223;80;21007;-64
2022/05/15 06:39:48;;;;;;;5.08;2.00;;;;;;;37.59;20.66;99684.09;1778790;80;21074;-56
2022/05/15 06:42:15;;;;;;;3.90;1.65;;;;;;;37.46;20.22;99673.50;1778883;80;21611;-62
2022/05/15 06:44:42;;;;;;;2.92;1.42;;;;;;;37.26;20.57;99672.19;1749425;80;21429;-57
2022/05/15 06:47:09;;;;;;;3.25;1.82;;;;;;;37.32;20.78;99672.63;1748838;80;21109;-57
2022/05/15 06:49:37;;;;;;;2.80;1.47;;;;;;;37.27;20.20;99675.09;1749154;80;22306;-56
2022/05/15 06:52:05;;;;;;;3.45;1.42;;;;;;;37.21;20.33;99671.97;1773438;80;21537;-56
2022/05/15 06:54:33;;;;;;;3.80;1.40;;;;;;;37.16;20.21;99678.31;1760701;80;21583;-62
2022/05/15 06:59:45;;;;;;;3.67;1.67;;;;;;;36.78;20.11;99685.72;1778325;80;21054;-58
2022/05/15 07:02:12;;;;;;;3.80;1.45;;;;;;;36.81;20.44;99690.41;1767393;80;21068;-58
2022/05/15 07:04:39;;;;;;;4.42;1.67;;;;;;;36.86;19.66;99686.57;1747794;80;21121;-59
2022/05/15 07:07:07;;;;;;;3.55;1.40;;;;;;;36.54;19.74;99694.61;1752665;80;21556;-59
2022/05/15 07:09:35;;;;;;;2.67;1.42;;;;;;;36.39;19.50;99699.66;1748249;80;21094;-59
2022/05/15 07:12:03;;;;;;;4.67;1.67;;;;;;;36.31;19.71;99706.16;1765712;80;21559;-57
2022/05/15 07:14:30;;;;;;;3.27;1.42;;;;;;;36.22;20.14;99709.74;1763013;80;21042;-58
2022/05/15 07:16:58;;;;;;;2.98;1.65;;;;;;;36.37;20.14;99704.69;1775048;80;21028;-62
2022/05/15 07:19:25;;;;;;;3.65;1.50;;;;;;;36.45;19.86;99701.47;1768802;80;22770;-60
2022/05/15 07:21:52;;;;;;;4.25;1.50;;;;;;;36.43;20.21;99697.76;1747053;80;21062;-56
2022/05/15 07:24:20;;;;;;;3.25;1.50;;;;;;;36.43;20.24;99696.98;1774729;80;21150;-59
2022/05/15 07:26:48;;;;;;;3.77;1.47;;;;;;;36.27;19.55;99699.91;1775903;80;21013;-63
2022/05/15 07:29:15;;;;;;;2.35;1.37;;;;;;;36.03;19.91;99708.73;1754497;80;21068;-55
2022/05/15 07:31:44;;;;;;;4.00;1.87;;;;;;;36.16;20.52;99703.84;1765502;80;21315;-56
2022/05/15 07:34:11;;;;;;;3.27;1.60;;;;;;;36.23;19.90;99699.08;1766127;80;21304;-56
2022/05/15 07:36:39;;;;;;;4.70;1.45;;;;;;;36.35;20.00;99703.48;1745702;80;21071;-57
2022/05/15 07:39:07;;;;;;;3.52;1.65;;;;;;;36.60;20.12;99703.22;1745172;80;21037;-56
2022/05/15 07:41:34;;;;;;;3.52;1.47;;;;;;;36.63;19.82;99702.45;1771440;80;21106;-58
2022/05/15 07:44:01;;;;;;;4.30;1.40;;;;;;;36.49;19.74;99700.39;1775948;80;21289;-57
2022/05/15 07:46:28;;;;;;;2.92;1.30;;;;;;;36.49;19.81;99697.67;1776391;80;21058;-57
2022/05/15 07:48:56;;;;;;;3.55;1.50;;;;;;;36.53;20.02;99697.13;1758597;80;21067;-63
2022/05/15 07:51:23;;;;;;;2.65;1.37;;;;;;;36.38;20.44;99703.53;1765206;80;21810;-62
2022/05/15 07:53:50;;;;;;;4.35;1.30;;;;;;;36.18;20.25;99708.89;1748999;80;21105;-55
2022/05/15 07:56:17;;;;;;;3.92;1.70;;;;;;;36.05;19.85;99707.78;1746387;80;21752;-56
2022/05/15 07:58:45;;;;;;;2.75;1.50;;;;;;;35.70;19.85;99709.98;1752005;80;20981;-57
2022/05/15 08:01:12;;;;;;;2.98;1.30;;;;;;;35.41;20.29;99698.67;1775323;80;21521;-57
2022/05/15 08:03:43;;;;;;;3.05;1.20;;;;;;;35.22;20.71;99704.96;1775155;80;21506;-56
2022/05/15 08:09:01;;;;;;;3.17;1.35;;;;;;;35.12;20.29;99702.07;1712341;81;21096;-56
2022/05/15 08:11:28;;;;;;;2.60;1.35;;;;;;;35.16;20.44;99713.20;1757306;81;21435;-58
2022/05/15 08:13:56;;;;;;;4.70;1.50;;;;;;;34.95;20.48;99712.22;1740663;80;21508;-56
2022/05/15 08:16:23;;;;;;;2.55;1.20;;;;;;;34.75;20.60;99713.41;1753634;81;21025;-58
2022/05/15 08:24:22;;;;;;;3.33;1.10;;;;;;;33.73;21.28;99720.34;1734559;81;21049;-64
2022/05/15 08:26:49;;;;;;;3.42;1.35;;;;;;;33.98;20.99;99717.66;1757644;81;21082;-59
2022/05/15 08:29:18;;;;;;;3.00;1.20;;;;;;;34.31;21.10;99714.47;1735390;81;21046;-56
2022/05/15 08:31:46;;;;;;;2.15;1.07;;;;;;;34.72;20.79;99711.42;1745589;80;21058;-56
2022/05/15 08:34:13;;;;;;;1.98;1.10;;;;;;;35.39;20.58;99719.17;1756864;80;21248;-62
2022/05/15 08:36:41;;;;;;;2.17;1.20;;;;;;;35.81;19.07;99714.98;1775216;80;21055;-64
2022/05/15 08:39:09;;;;;;;2.20;1.20;;;;;;;35.89;18.87;99717.22;1749195;80;21092;-57
2022/05/15 08:42:02;;;;;;;2.02;1.10;;;;;;;36.10;19.25;99714.02;1745489;80;21771;-57
2022/05/15 08:44:34;;;;;;;2.75;1.10;;;;;;;35.78;19.84;99717.07;1750601;80;20986;-63
2022/05/15 08:47:26;;;;;;;2.60;1.40;;;;;;;35.52;19.32;99726.77;1762206;80;21987;-55
2022/05/15 08:50:08;;;;;;;1.70;1.00;;;;;;;35.53;19.18;99712.63;1745852;80;20940;-56
2022/05/15 08:52:58;;;;;;;1.45;0.90;;;;;;;35.48;19.04;99705.56;1744748;80;21094;-55
2022/05/15 08:55:44;;;;;;;2.90;1.20;;;;;;;35.40;19.09;99713.38;1763136;80;21536;-55
2022/05/15 08:58:17;;;;;;;2.37;1.20;;;;;;;34.99;19.26;99715.80;1746735;80;21017;-55
2022/05/15 09:00:47;;;;;;;3.02;1.00;;;;;;;34.53;19.91;99718.41;1745351;80;21229;-58
2022/05/15 09:03:30;;;;;;;2.95;1.32;;;;;;;34.44;20.03;99714.32;1707000;81;21068;-63
2022/05/15 09:06:10;;;;;;;2.20;1.25;;;;;;;34.26;20.36;99715.34;1754914;81;20999;-58
2022/05/15 09:09:16;;;;;;;2.02;0.98;;;;;;;34.04;20.04;99721.64;1744508;80;21512;-54
2022/05/15 09:12:07;;;;;;;2.80;1.17;;;;;;;33.86;20.28;99713.11;1709051;83;21018;-60
2022/05/15 09:15:01;;;;;;;2.67;0.95;;;;;;;33.82;20.35;99714.17;1679363;83;21717;-54
2022/05/15 09:17:47;;;;;;;2.27;1.00;;;;;;;33.71;20.80;99705.03;1757841;80;21815;-56
2022/05/15 09:20:27;;;;;;;6.25;1.15;;;;;;;33.60;20.93;99706.95;1745453;80;21034;-55
2022/05/15 09:23:04;;;;;;;3.33;0.95;;;;;;;33.36;20.98;99705.75;1766129;80;21059;-54
2022/05/15 09:25:37;;;;;;;3.15;1.12;;;;;;;33.02;21.24;99708.00;1775304;80;20904;-58
2022/05/15 09:28:12;;;;;;;4.20;1.40;;;;;;;32.68;21.21;99723.67;1761606;80;21152;-57
2022/05/15 09:30:45;;;;;;;4.13;1.03;;;;;;;32.18;21.70;99728.98;1733192;80;21570;-59
2022/05/15 09:33:36;;;;;;;2.60;1.10;;;;;;;31.92;22.20;99724.53;1775378;80;21410;-62
2022/05/15 09:36:23;;;;;;;2.77;0.98;;;;;;;32.27;22.61;99718.63;1755297;80;21102;-59
2022/05/15 09:39:11;;;;;;;3.23;1.40;;;;;;;32.68;22.00;99711.52;1751962;80;20951;-55
2022/05/15 09:44:26;;;;;;;2.07;0.90;;;;;;;32.76;22.10;99714.41;1744702;82;20932;-55
2022/05/15 09:47:03;;;;;;;3.00;1.10;;;;;;;33.12;22.09;99698.05;1747250;80;21609;-54
2022/05/15 09:49:33;;;;;;;2.20;0.90;;;;;;;33.39;21.61;99700.43;1757889;80;21181;-59
2022/05/15 09:52:07;;;;;;;3.42;1.32;;;;;;;33.28;20.75;99714.25;1750537;80;21363;-64
2022/05/15 09:54:42;;;;;;;4.07;1.30;;;;;;;32.81;21.02;99706.09;1760065;80;21364;-55
2022/05/15 09:57:23;;;;;;;1.60;1.10;;;;;;;32.55;21.34;99712.72;1748835;80;21368;-61
2022/05/15 10:00:03;;;;;;;1.85;1.07;;;;;;;32.38;21.69;99703.53;1775899;80;21023;-65
2022/05/15 10:02:42;;;;;;;4.07;1.10;;;;;;;32.26;22.37;99710.31;1749306;80;21518;-63
2022/05/15 10:05:15;;;;;;;2.60;1.10;;;;;;;32.11;22.62;99717.98;1745841;80;22029;-58
2022/05/15 10:07:52;;;;;;;2.53;0.90;;;;;;;31.56;23.35;99711.30;1761884;80;21301;-55
2022/05/15 10:10:31;;;;;;;2.40;1.20;;;;;;;31.22;23.88;99715.95;1744196;80;21079;-56
2022/05/15 10:13:10;;;;;;;1.63;0.90;;;;;;;30.81;23.73;99712.81;1744647;80;21427;-63
2022/05/15 10:15:44;;;;;;;2.77;1.17;;;;;;;30.35;24.79;99721.34;1768520;80;21075;-55
2022/05/15 10:18:16;;;;;;;3.47;1.00;;;;;;;30.25;25.04;99713.09;1745069;80;20988;-58
2022/05/15 10:20:44;;;;;;;2.90;1.03;;;;;;;30.49;25.06;99714.33;1756306;80;21264;-64
2022/05/15 10:23:22;;;;;;;2.10;0.97;;;;;;;30.72;24.92;99711.53;1757012;80;21316;-56
2022/05/15 10:26:03;;;;;;;2.60;1.17;;;;;;;30.96;24.62;99703.33;1770789;80;21066;-65
2022/05/15 10:28:48;;;;;;;3.20;1.20;;;;;;;31.16;24.26;99710.54;1761010;80;21027;-61
2022/05/15 10:31:31;;;;;;;3.60;1.20;;;;;;;31.45;24.03;99707.47;1745071;80;21116;-63
2022/05/15 10:34:01;;;;;;;2.40;1.20;;;;;;;31.87;23.94;99705.91;1744061;80;21328;-57
2022/05/15 10:36:51;;;;;;;2.67;1.10;;;;;;;32.34;23.40;99695.90;1711822;82;21042;-55
2022/05/15 10:39:59;;;;;;;3.27;1.03;;;;;;;32.61;23.11;99695.14;1743836;82;21497;-55
2022/05/15 10:42:40;;;;;;;2.33;0.90;;;;;;;32.75;23.38;99698.79;1744622;80;21044;-61
2022/05/15 10:45:35;;;;;;;2.40;1.17;;;;;;;32.78;23.03;99694.63;1735221;80;21073;-56
2022/05/15 10:48:32;;;;;;;2.43;1.20;;;;;;;32.57;22.89;99707.75;1767732;80;21232;-56
2022/05/15 10:51:08;;;;;;;2.93;0.80;;;;;;;32.07;23.58;99714.40;1750762;80;21109;-56
2022/05/15 10:57:24;;;;;;;2.63;1.03;;;;;;;31.82;22.73;99722.27;1760689;80;21049;-58
2022/05/15 11:00:21;;;;;;;1.63;0.80;;;;;;;31.37;23.04;99716.45;1692924;82;21194;-55
2022/05/15 11:03:26;;;;;;;3.03;0.80;;;;;;;30.60;23.32;99706.08;1754308;80;21427;-65
2022/05/15 11:06:33;;;;;;;2.33;0.80;;;;;;;30.09;23.49;99708.05;1743769;80;21053;-56
2022/05/15 11:09:28;;;;;;;2.60;0.90;;;;;;;29.84;23.78;99713.02;1750299;80;21124;-60
2022/05/15 11:12:24;;;;;;;3.37;0.90;;;;;;;29.36;24.53;99715.50;1753871;80;21091;-55
2022/05/15 11:15:23;;;;;;;2.10;0.90;;;;;;;29.36;24.80;99715.50;1768031;80;21938;-64
2022/05/15 11:18:08;;;;;;;2.07;0.70;;;;;;;29.26;25.07;99718.78;1757011;80;21212;-62
2022/05/15 11:20:49;;;;;;;1.90;0.80;;;;;;;29.49;25.08;99714.52;1784998;80;21592;-57
2022/05/15 11:23:23;;;;;;;4.60;0.60;;;;;;;29.70;25.01;99713.24;1783177;80;21010;-57
2022/05/15 11:26:08;;;;;;;3.40;0.73;;;;;;;29.99;23.53;99707.08;1753695;80;20995;-66
2022/05/15 11:28:48;;;;;;;1.90;0.80;;;;;;;30.32;23.15;99707.77;1749146;80;21388;-56
2022/05/15 11:31:18;;;;;;;1.30;0.60;;;;;;;30.85;23.01;99704.87;1769716;80;21408;-56
2022/05/15 11:33:56;;;;;;;2.58;0.80;;;;;;;31.13;22.52;99699.08;1782189;80;21051;-56
2022/05/15 11:36:33;;;;;;;2.40;0.63;;;;;;;31.37;21.48;99702.42;1753737;80;21086;-55
2022/05/15 11:39:13;;;;;;;3.20;0.87;;;;;;;31.17;21.55;99702.68;1754364;80;21347;-55
2022/05/15 11:42:08;;;;;;;1.17;0.50;;;;;;;30.92;22.18;99698.39;1776324;80;21522;-54
2022/05/15 11:44:22;;;;;;;2.23;0.90;;;;;;;30.67;22.81;99698.27;1748371;80;21879;-60
2022/05/15 11:46:57;;;;;;;2.93;0.80;;;;;;;30.47;22.75;99692.38;1753251;81;21070;-63
2022/05/15 11:49:37;;;;;;;2.20;0.80;;;;;;;30.16;22.91;99696.78;1773040;80;21058;-54
2022/05/15 11:52:11;;;;;;;1.85;0.70;;;;;;;29.70;23.12;99696.59;1778437;80;21006;-56
2022/05/15 11:54:41;;;;;;;3.03;0.83;;;;;;;29.41;23.45;99701.91;1753707;80;20985;-61
2022/05/15 11:57:13;;;;;;;2.70;0.90;;;;;;;29.11;23.56;99696.48;1768179;80;21377;-56
2022/05/15 11:59:50;;;;;;;1.20;0.53;;;;;;;28.90;23.89;99693.65;1785992;80;20951;-54
2022/05/15 12:02:37;;;;;;;3.03;0.90;;;;;;;28.90;24.25;99690.19;1753032;80;20986;-63
2022/05/15 12:05:26;;;;;;;2.73;1.00;;;;;;;28.69;23.75;99688.73;1784437;80;20911;-54
2022/05/15 12:08:07;;;;;;;1.40;0.60;;;;;;;28.57;24.39;99690.72;1783541;80;21082;-59
2022/05/15 12:10:41;;;;;;;1.93;0.83;;;;;;;28.42;24.30;99685.84;1747157;80;21131;-55
2022/05/15 12:13:31;;;;;;;2.47;0.80;;;;;;;28.30;24.70;99690.47;1744919;80;20950;-57